• Join FlightAware (Why Join?)
  • Login
  • US Flag 
02:31AM EST


 

Airport Tracker/Info


-or-


 

Live Flight TrackerFlight Track Log ✈ N650SG ✈ 25-Jun-2013 ✈ KHVC - KMTN

Flight Track Log - Related Links

Times and Time Zones

All times are in EDT time to prevent confusion due to time zone crossing. See the N650SG flight status page for this flight to view local times or setup timezone preferences in your user account.

Time Position Orientation Groundspeed Altitude Reporting Facility
EDT Latitude Longitude Course Direction KTS MPH feet Rate Location/Type
12:38PM 36.8528 -87.4817 187° South 160 184 900  Level Memphis Center
12:39PM 36.8092 -87.4883 187° South 463 533 2,500 1,680 Climbing Memphis Center
12:40PM 36.8031 -87.4108 96° East 293 337 4,300 2,100 Climbing Memphis Center
12:41PM 36.8153 -87.3092 81° East 293 337 6,700 2,400 Climbing Memphis Center
12:42PM 36.8275 -87.2156 81° East 293 337 9,200 1,860 Climbing Memphis Center
12:43PM 36.8392 -87.1061 82° East 303 349 10,500 1,020 Climbing Memphis Center
12:44PM 36.8569 -86.9861 79° East 335 386 11,300 1,080 Climbing Memphis Center
12:45PM 36.8761 -86.8506 80° East 354 407 12,700 1,200 Climbing Memphis Center
12:46PM 36.8933 -86.7253 80° East 359 413 13,800 1,020 Climbing Memphis Center
12:47PM 36.9081 -86.5947 82° East 364 419 14,800 1,020 Climbing Memphis Center
12:48PM 36.9272 -86.4667 79° East 373 429 15,900 1,020 Climbing Memphis Center
12:49PM 36.9689 -86.3428 67° East 373 429 16,900 960 Climbing Memphis Center
12:50PM 37.0194 -86.2258 62° Northeast 374 430 17,900 780 Climbing Memphis Center
12:52PM 37.0931 -86.0689 60° Northeast 388 447 18,900 840 Climbing Indianapolis Center
12:53PM 37.1453 -85.9456 62° Northeast 395 455 20,000 960 Climbing Indianapolis Center
12:54PM 37.1992 -85.8242 61° Northeast 395 455 21,000 1,020 Climbing Indianapolis Center
12:55PM 37.2522 -85.7011 62° Northeast 397 457 22,100 1,020 Climbing Indianapolis Center
12:56PM 37.3036 -85.5842 61° Northeast 394 453 23,200 1,020 Climbing Indianapolis Center
12:57PM 37.3597 -85.4517 62° Northeast 400 460 24,300 900 Climbing Indianapolis Center
12:58PM 37.4136 -85.3278 61° Northeast 401 461 25,100 960 Climbing Indianapolis Center
12:59PM 37.4764 -85.1803 62° Northeast 408 470 26,300 1,020 Climbing Indianapolis Center
01:00PM 37.5281 -85.0550 62° Northeast 403 464 27,300 1,080 Climbing Indianapolis Center
01:01PM 37.5808 -84.9311 62° Northeast 401 461 28,600 780 Climbing Indianapolis Center
01:02PM 37.6336 -84.8072 62° Northeast 400 460 29,000 360 Climbing Indianapolis Center
01:03PM 37.6900 -84.6750 62° Northeast 418 481 29,400 660 Climbing Indianapolis Center
01:04PM 37.7458 -84.5425 62° Northeast 425 489 30,400 900 Climbing Indianapolis Center
01:05PM 37.8011 -84.4094 62° Northeast 423 487 31,300 840 Climbing Indianapolis Center
01:06PM 37.8644 -84.2556 62° Northeast 422 486 32,200 720 Climbing Indianapolis Center
01:07PM 37.9206 -84.1214 62° Northeast 426 490 32,900 660 Climbing Indianapolis Center
01:08PM 37.9750 -83.9858 63° Northeast 430 495 33,600 660 Climbing Indianapolis Center
01:09PM 38.0297 -83.8506 63° Northeast 431 496 34,300 600 Climbing Indianapolis Center
01:10PM 38.0875 -83.7111 62° Northeast 440 506 34,900 480 Climbing Indianapolis Center
01:11PM 38.1431 -83.5750 63° Northeast 435 501 35,400 480 Climbing Indianapolis Center
01:12PM 38.2064 -83.4139 63° Northeast 434 499 36,000 480 Climbing Indianapolis Center
01:13PM 38.2614 -83.2750 63° Northeast 438 504 36,500 480 Climbing Indianapolis Center
01:14PM 38.3164 -83.1372 63° Northeast 437 503 37,000 240 Climbing Indianapolis Center
01:15PM 38.3733 -82.9989 62° Northeast 438 504 37,000  Level Indianapolis Center
01:16PM 38.4297 -82.8544 63° Northeast 449 517 37,000  Level Indianapolis Center
01:17PM 38.4875 -82.7067 63° Northeast 460 529 37,000  Level Indianapolis Center
01:18PM 38.5467 -82.5575 63° Northeast 468 539 37,000  Level Indianapolis Center
01:19PM 38.6053 -82.4081 63° Northeast 468 539 37,000  Level Indianapolis Center
01:20PM 38.6644 -82.2569 63° Northeast 473 544 37,000  Level Indianapolis Center
01:21PM 38.7336 -82.0761 64° Northeast 471 542 37,000  Level Indianapolis Center
01:23PM 38.7925 -81.9250 63° Northeast 471 542 37,000  Level Indianapolis Center
01:24PM 38.8511 -81.7728 64° Northeast 469 540 37,000  Level Indianapolis Center
01:25PM 38.9103 -81.6194 64° Northeast 471 542 37,000  Level Indianapolis Center
01:26PM 38.9664 -81.4667 65° Northeast 466 536 37,000  Level Indianapolis Center
01:27PM 39.0222 -81.3161 64° Northeast 463 533 37,000  Level Indianapolis Center
01:28PM 39.0794 -81.1661 64° Northeast 465 535 37,000  Level Indianapolis Center
01:29PM 39.1364 -81.0164 64° Northeast 466 536 37,000  Level Indianapolis Center
01:30PM 39.1906 -80.8672 65° Northeast 460 529 37,000  Level Indianapolis Center
01:31PM 39.2444 -80.7178 65° Northeast 460 529 37,000  Level Indianapolis Center
01:32PM 39.3100 -80.5403 64° Northeast 457 526 37,000 -540 Level Indianapolis Center
01:33PM 39.3642 -80.3906 65° Northeast 458 527 36,000 -1,560 Descending Indianapolis Center
01:34PM 39.4194 -80.2400 65° Northeast 461 531 33,900 -1,680 Descending Indianapolis Center
01:35PM 39.4733 -80.0853 66° East 470 541 32,600 -1,800 Descending Indianapolis Center
01:36PM 39.5292 -79.9356 64° Northeast 464 534 30,200 -2,520 Descending Indianapolis Center
01:37PM 39.5519 -79.7756 79° East 456 525 27,500 -2,280 Descending Indianapolis Center
01:37PM 39.5481 -79.6906 93° East 442 509 26,700 -1,500 Descending Washington Center
01:38PM 39.5344 -79.5364 96° East 425 489 25,300 -900 Descending Washington Center
01:40PM 39.5228 -79.3822 96° East 430 495 25,000 -180 Descending Washington Center
01:40PM 39.5067 -79.2281 98° East 430 495 25,000  Level Washington Center
01:41PM 39.4925 -79.0714 97° East 430 495 25,000 -600 Level Washington Center
01:43PM 39.4822 -78.9231 95° East 430 495 23,800 -1,860 Descending Washington Center
01:44PM 39.4656 -78.7689 98° East 430 495 21,300 -2,340 Descending Washington Center
01:44PM 39.4547 -78.6181 95° East 424 488 19,200 -2,760 Descending Washington Center
01:45PM 39.4417 -78.4697 96° East 424 488 15,900 -2,880 Descending Washington Center
01:47PM 39.4283 -78.3267 97° East 412 474 13,400 -1,500 Descending Washington Center
01:47PM 39.4150 -78.1811 97° East 407 468 13,000 -240 Descending Washington Center
01:48PM 39.4033 -78.0411 96° East 407 468 13,000  Level Washington Center
01:50PM 39.3958 -77.8958 94° East 407 468 13,000 -300 Level Washington Center
01:50PM 39.4111 -77.7406 83° East 400 460 12,400 -720 Descending Washington Center
01:51PM 39.4261 -77.5986 82° East 400 460 11,600 -720 Descending Washington Center
01:52PM 39.4367 -77.4592 84° East 400 460 11,000 -360 Descending Washington Center
01:54PM 39.4500 -77.2833 84° East 392 451 10,900 -60 Descending Potomac TRACON
01:55PM 39.4667 -77.1333 82° East 393 452 10,900 -720 Level Potomac TRACON
01:56PM 39.4833 -77.0000 81° East 368 423 9,500 -1,320 Descending Potomac TRACON
01:57PM 39.4667 -76.9000 102° East 311 358 8,300 -1,560 Descending Potomac TRACON
01:58PM 39.4667 -76.7833 90° East 308 354 6,400 -1,800 Descending Potomac TRACON
01:59PM 39.4333 -76.7000 117° Southeast 293 337 4,700 -1,560 Descending Potomac TRACON
02:00PM 39.3833 -76.6000 123° Southeast 284 327 3,300 -1,380 Descending Potomac TRACON
02:01PM 39.3500 -76.5167 117° Southeast 272 313 2,000 -660 Descending Potomac TRACON
02:02PM 39.3167 -76.4500 123° Southeast 221 254 2,000 -360 Level Potomac TRACON
02:03PM 39.2833 -76.4000 131° Southeast 203 234 1,300 -900 Descending Potomac TRACON
02:04PM 39.3000 -76.3833 38° Northeast 170 196 300 -1,020 Descending Potomac TRACON
02:06PM 39.3167 -76.4000 322° Northwest  Level FlightAware Approximate
02:13PM 39.3257 -76.4138 322° Northwest  Level Estimated
02:14PM 39.3257 -76.4138 322° Northwest  Level Estimated
02:15PM 39.3257 -76.4138 322° Northwest  Level Estimated
02:16PM 39.3257 -76.4138 322° Northwest  Level Estimated
02:17PM 39.3257 -76.4138 322° Northwest  Level Estimated
02:18PM 39.3257 -76.4138 322° Northwest  Level Estimated
02:19PM 39.3257 -76.4138 322° Northwest  Level Estimated
02:20PM 39.3257 -76.4138 322° Northwest  Level Estimated